createdAt,value
2023-01-09T00:00:53.916Z,9.07
2023-01-09T00:03:21.028Z,6.53
2023-01-09T00:05:48.176Z,8.18
2023-01-09T00:08:15.445Z,8.18
2023-01-09T00:10:42.541Z,7.72
2023-01-09T00:13:11.625Z,8.00
2023-01-09T00:15:39.033Z,7.82
2023-01-09T00:18:06.441Z,8.02
2023-01-09T00:20:33.574Z,10.60
2023-01-09T00:23:00.703Z,9.13
2023-01-09T00:25:27.825Z,7.28
2023-01-09T00:27:54.991Z,11.00
2023-01-09T00:30:22.173Z,7.28
2023-01-09T00:32:49.297Z,16.00
2023-01-09T00:35:17.515Z,8.98
2023-01-09T00:37:44.685Z,8.80
2023-01-09T00:40:12.032Z,10.63
2023-01-09T00:42:39.238Z,11.32
2023-01-09T00:45:08.766Z,6.50
2023-01-09T00:47:39.874Z,5.82
2023-01-09T00:50:15.783Z,6.70
2023-01-09T00:52:43.073Z,7.88
2023-01-09T00:55:10.310Z,8.95
2023-01-09T00:57:38.651Z,7.45
2023-01-09T01:00:06.077Z,9.25
2023-01-09T01:02:33.203Z,12.18
2023-01-09T01:05:19.106Z,16.83
2023-01-09T01:07:46.255Z,9.98
2023-01-09T01:10:16.245Z,15.18
2023-01-09T01:12:44.007Z,5.95
2023-01-09T01:15:11.380Z,10.77
2023-01-09T01:17:38.734Z,8.82
2023-01-09T01:20:06.334Z,23.42
2023-01-09T01:22:33.430Z,11.32
2023-01-09T01:25:00.552Z,11.98
2023-01-09T01:27:28.276Z,7.20
2023-01-09T01:29:55.577Z,14.45
2023-01-09T01:32:22.742Z,11.23
2023-01-09T01:34:49.861Z,16.95
2023-01-09T01:37:17.022Z,9.35
2023-01-09T01:39:44.120Z,11.07
2023-01-09T01:42:13.121Z,6.47
2023-01-09T01:44:59.146Z,9.30
2023-01-09T01:47:29.500Z,8.10
2023-01-09T01:49:56.783Z,10.32
2023-01-09T01:52:23.867Z,4.97
2023-01-09T01:54:51.008Z,4.60
2023-01-09T01:57:18.109Z,7.78
2023-01-09T01:59:52.613Z,11.43
2023-01-09T02:02:20.844Z,11.15
2023-01-09T02:04:48.056Z,11.55
2023-01-09T02:07:15.208Z,11.93
2023-01-09T02:09:44.461Z,14.10
2023-01-09T02:12:24.461Z,14.35
2023-01-09T02:14:54.672Z,21.08
2023-01-09T02:17:25.941Z,16.80
2023-01-09T02:20:11.914Z,14.48
2023-01-09T02:22:57.822Z,14.40
2023-01-09T02:25:43.668Z,13.25
2023-01-09T02:28:13.881Z,18.05
2023-01-09T02:30:43.793Z,11.05
2023-01-09T02:33:22.930Z,11.63
2023-01-09T02:35:50.013Z,13.63
2023-01-09T02:38:29.551Z,11.73
2023-01-09T02:41:01.266Z,14.82
2023-01-09T02:43:28.410Z,15.20
2023-01-09T02:45:55.559Z,14.00
2023-01-09T02:48:22.683Z,15.80
2023-01-09T02:50:49.777Z,17.23
2023-01-09T02:53:27.061Z,18.92
2023-01-09T02:55:57.165Z,13.85
2023-01-09T02:58:34.451Z,15.30
2023-01-09T03:01:01.712Z,14.90
2023-01-09T03:03:28.878Z,17.67
2023-01-09T03:06:06.435Z,13.85
2023-01-09T03:08:43.739Z,13.63
2023-01-09T03:11:11.936Z,17.38
2023-01-09T03:13:43.117Z,19.92
2023-01-09T03:16:10.408Z,21.48
2023-01-09T03:18:37.595Z,20.85
2023-01-09T03:21:05.604Z,21.08
2023-01-09T03:23:48.183Z,18.45
2023-01-09T03:26:15.395Z,19.63
2023-01-09T03:28:42.487Z,16.48
2023-01-09T03:31:09.713Z,13.75
2023-01-09T03:33:36.839Z,12.25
2023-01-09T03:36:04.155Z,12.85
2023-01-09T03:38:31.274Z,18.45
2023-01-09T03:40:58.425Z,17.42
2023-01-09T03:43:25.564Z,12.25
2023-01-09T03:45:52.761Z,16.35
2023-01-09T03:48:19.903Z,19.08
2023-01-09T03:50:49.008Z,19.30
2023-01-09T03:53:16.784Z,17.52
2023-01-09T03:55:47.304Z,13.63
2023-01-09T03:58:14.868Z,11.95
2023-01-09T04:00:42.019Z,11.75
2023-01-09T04:03:09.437Z,10.10
2023-01-09T04:05:36.607Z,11.30
2023-01-09T04:08:03.741Z,10.75
2023-01-09T04:10:30.923Z,12.80
2023-01-09T04:12:58.099Z,10.85
2023-01-09T04:15:25.288Z,10.32
2023-01-09T04:17:52.404Z,5.53
2023-01-09T04:20:19.507Z,5.25
2023-01-09T04:22:46.729Z,5.32
2023-01-09T04:25:13.827Z,4.93
2023-01-09T04:27:40.920Z,4.05
2023-01-09T04:30:08.469Z,3.83
2023-01-09T04:32:35.568Z,4.10
2023-01-09T04:35:02.746Z,4.10
2023-01-09T04:37:29.961Z,4.18
2023-01-09T04:39:57.227Z,3.30
2023-01-09T04:42:24.392Z,3.70
2023-01-09T04:44:53.835Z,3.50
2023-01-09T04:47:21.635Z,3.78
2023-01-09T04:49:48.784Z,3.17
2023-01-09T04:52:15.980Z,3.50
2023-01-09T04:54:43.090Z,5.55
2023-01-09T04:57:10.321Z,5.15
2023-01-09T04:59:37.499Z,4.13
2023-01-09T05:02:04.707Z,3.80
2023-01-09T05:04:31.977Z,3.40
2023-01-09T05:06:59.152Z,3.10
2023-01-09T05:09:26.245Z,4.03
2023-01-09T05:11:53.378Z,3.53
2023-01-09T05:14:20.599Z,2.60
2023-01-09T05:16:47.745Z,2.92
2023-01-09T05:19:15.044Z,3.13
2023-01-09T05:21:42.196Z,3.45
2023-01-09T05:24:09.317Z,2.25
2023-01-09T05:26:36.445Z,2.30
2023-01-09T05:29:03.571Z,2.40
2023-01-09T05:31:30.688Z,3.72
2023-01-09T05:33:59.269Z,10.07
2023-01-09T05:36:26.402Z,10.68
2023-01-09T05:38:53.499Z,12.65
2023-01-09T05:41:22.145Z,3.63
2023-01-09T05:43:50.133Z,6.90
2023-01-09T05:46:17.243Z,3.05
2023-01-09T05:48:45.108Z,5.35
2023-01-09T05:51:12.713Z,3.30
2023-01-09T05:53:39.837Z,3.30
2023-01-09T05:56:07.137Z,6.30
2023-01-09T05:58:34.347Z,7.00
2023-01-09T06:01:01.557Z,3.08
2023-01-09T06:03:28.705Z,2.60
2023-01-09T06:05:55.838Z,4.65
2023-01-09T06:08:22.940Z,2.78
2023-01-09T06:10:50.071Z,2.80
2023-01-09T06:13:17.214Z,8.55
2023-01-09T06:15:44.344Z,12.60
2023-01-09T06:18:11.485Z,11.10
2023-01-09T06:20:38.656Z,6.10
2023-01-09T06:23:05.763Z,1.92
2023-01-09T06:25:32.945Z,3.25
2023-01-09T06:28:00.169Z,3.20
2023-01-09T06:30:27.257Z,3.90
2023-01-09T06:32:54.342Z,4.10
2023-01-09T06:35:22.390Z,6.03
2023-01-09T06:37:49.847Z,3.67
2023-01-09T06:40:17.364Z,4.97
2023-01-09T06:42:47.376Z,5.25
2023-01-09T06:45:14.574Z,3.40
2023-01-09T06:47:41.684Z,2.30
2023-01-09T06:50:12.551Z,2.50
2023-01-09T06:52:39.924Z,4.57
2023-01-09T06:55:07.539Z,3.80
2023-01-09T06:57:34.701Z,3.03
2023-01-09T07:00:01.848Z,3.25
2023-01-09T07:02:28.962Z,3.38
2023-01-09T07:04:56.118Z,2.55
2023-01-09T07:07:23.484Z,2.20
2023-01-09T07:09:50.656Z,2.50
2023-01-09T07:12:18.034Z,1.98
2023-01-09T07:14:45.181Z,2.85
2023-01-09T07:17:13.448Z,2.17
2023-01-09T07:19:40.609Z,1.30
2023-01-09T07:22:07.745Z,2.92
2023-01-09T07:24:34.848Z,3.38
2023-01-09T07:27:02.490Z,2.70
2023-01-09T07:29:29.636Z,2.28
2023-01-09T07:31:56.789Z,3.95
2023-01-09T07:34:23.919Z,3.00
2023-01-09T07:36:51.264Z,1.48
2023-01-09T07:39:18.411Z,2.05
2023-01-09T07:41:45.597Z,3.40
2023-01-09T07:44:12.814Z,10.57
2023-01-09T07:46:40.172Z,2.38
2023-01-09T07:49:07.543Z,2.10
2023-01-09T07:51:34.638Z,5.10
2023-01-09T07:54:01.738Z,2.90
2023-01-09T07:56:28.889Z,2.20
2023-01-09T07:58:55.994Z,2.38
2023-01-09T08:01:23.319Z,1.90
2023-01-09T08:03:50.618Z,2.53
2023-01-09T08:06:17.744Z,2.30
2023-01-09T08:08:44.875Z,3.60
2023-01-09T08:11:12.028Z,3.10
2023-01-09T08:13:39.201Z,2.47
2023-01-09T08:16:06.531Z,2.15
2023-01-09T08:18:33.763Z,6.28
2023-01-09T08:21:00.889Z,4.18
2023-01-09T08:23:28.039Z,2.78
2023-01-09T08:25:55.190Z,5.30
2023-01-09T08:28:22.291Z,1.42
2023-01-09T08:30:49.392Z,1.92
2023-01-09T08:33:16.537Z,2.13
2023-01-09T08:35:44.461Z,1.75
2023-01-09T08:38:11.678Z,1.80
2023-01-09T08:40:38.840Z,1.27
2023-01-09T08:43:24.530Z,1.77
2023-01-09T08:46:10.705Z,2.10
2023-01-09T08:48:37.826Z,3.80
2023-01-09T08:51:04.977Z,4.47
2023-01-09T08:53:32.141Z,4.03
2023-01-09T08:55:59.297Z,3.08
2023-01-09T08:58:26.406Z,3.10
2023-01-09T09:00:53.561Z,4.88
2023-01-09T09:03:21.723Z,1.90
2023-01-09T09:05:48.826Z,2.75
2023-01-09T09:08:16.549Z,2.38
2023-01-09T09:10:43.695Z,2.63
2023-01-09T09:13:10.786Z,1.73
2023-01-09T09:15:39.065Z,1.80
2023-01-09T09:18:07.118Z,1.60
2023-01-09T09:20:35.285Z,1.80
2023-01-09T09:23:02.469Z,2.10
2023-01-09T09:25:29.572Z,3.50
2023-01-09T09:27:56.740Z,3.10
2023-01-09T09:30:24.046Z,2.85
2023-01-09T09:32:51.242Z,2.53
2023-01-09T09:35:18.701Z,13.25
2023-01-09T09:37:53.612Z,5.68
2023-01-09T09:40:21.448Z,5.07
2023-01-09T09:43:11.075Z,2.83
2023-01-09T09:45:41.260Z,1.38
2023-01-09T09:48:28.905Z,1.70
2023-01-09T09:50:56.008Z,1.70
2023-01-09T09:53:35.262Z,2.28
2023-01-09T09:56:02.668Z,2.03
2023-01-09T09:58:39.970Z,1.08
2023-01-09T10:01:09.616Z,1.48
2023-01-09T10:03:38.618Z,1.40
2023-01-09T10:06:10.473Z,1.17
2023-01-09T10:09:04.023Z,1.95
2023-01-09T10:11:36.099Z,2.15
2023-01-09T10:14:10.423Z,2.08
2023-01-09T10:16:46.326Z,1.38
2023-01-09T10:19:31.458Z,1.70
2023-01-09T10:22:10.479Z,2.13
2023-01-09T10:24:40.340Z,2.28
2023-01-09T10:27:25.569Z,1.70
2023-01-09T10:29:58.999Z,1.65
2023-01-09T10:32:28.912Z,1.73
2023-01-09T10:35:11.028Z,1.80
2023-01-09T10:37:39.011Z,1.77
2023-01-09T10:40:08.313Z,1.35
2023-01-09T10:42:40.090Z,2.38
2023-01-09T10:45:33.252Z,4.30
2023-01-09T10:48:01.801Z,1.63
2023-01-09T10:50:30.187Z,1.65
2023-01-09T10:52:58.234Z,1.92
2023-01-09T10:55:32.235Z,2.30
2023-01-09T10:58:00.111Z,1.90
2023-01-09T11:00:27.312Z,2.20
2023-01-09T11:02:54.926Z,3.33
2023-01-09T11:05:28.000Z,2.50
2023-01-09T11:08:18.422Z,2.85
2023-01-09T11:10:47.702Z,2.20
2023-01-09T11:13:35.144Z,3.47
2023-01-09T11:16:05.627Z,1.83
2023-01-09T11:18:33.218Z,2.00
2023-01-09T11:21:13.094Z,2.10
2023-01-09T11:23:40.188Z,2.10
2023-01-09T11:26:07.710Z,2.38
2023-01-09T11:28:35.627Z,5.10
2023-01-09T11:31:03.042Z,13.02
2023-01-09T11:33:31.097Z,1.92
2023-01-09T11:35:59.457Z,1.10
2023-01-09T11:38:26.813Z,1.40
2023-01-09T11:40:55.359Z,1.42
2023-01-09T11:43:25.695Z,1.35
2023-01-09T11:46:01.211Z,1.55
2023-01-09T11:48:30.116Z,1.30
2023-01-09T11:50:58.276Z,1.50
2023-01-09T11:53:25.509Z,0.93
2023-01-09T11:55:57.498Z,1.00
2023-01-09T11:58:24.636Z,1.20
2023-01-09T12:00:54.690Z,1.85
2023-01-09T12:03:40.379Z,1.70
2023-01-09T12:06:27.749Z,1.20
2023-01-09T12:08:58.199Z,1.10
2023-01-09T12:11:30.941Z,1.60
2023-01-09T12:14:01.076Z,1.30
2023-01-09T12:16:31.128Z,0.70
2023-01-09T12:19:01.523Z,0.95
2023-01-09T12:21:31.645Z,1.85
2023-01-09T12:24:01.695Z,1.20
2023-01-09T12:26:37.605Z,1.25
2023-01-09T12:29:07.762Z,1.60
2023-01-09T12:31:36.845Z,2.10
2023-01-09T12:34:22.744Z,1.95
2023-01-09T12:36:52.969Z,7.07
2023-01-09T12:39:20.082Z,1.30
2023-01-09T12:41:50.003Z,1.00
2023-01-09T12:44:27.426Z,1.52
2023-01-09T12:47:10.877Z,0.88
2023-01-09T12:49:42.789Z,1.00
2023-01-09T12:52:10.783Z,3.33
2023-01-09T12:54:37.943Z,1.40
2023-01-09T12:57:07.195Z,3.45
2023-01-09T12:59:35.914Z,0.80
2023-01-09T13:02:21.903Z,1.27
2023-01-09T13:04:51.441Z,0.80
2023-01-09T13:07:19.246Z,0.98
2023-01-09T13:09:52.272Z,1.08
2023-01-09T13:12:21.670Z,0.63
2023-01-09T13:14:58.260Z,1.02
2023-01-09T13:17:32.369Z,0.60
2023-01-09T13:19:59.614Z,0.60
2023-01-09T13:22:28.476Z,0.80
2023-01-09T13:24:58.587Z,0.68
2023-01-09T13:27:25.870Z,1.08
2023-01-09T13:29:55.588Z,0.75
2023-01-09T13:32:43.467Z,1.10
2023-01-09T13:35:14.263Z,0.60
2023-01-09T13:37:41.446Z,0.88
2023-01-09T13:40:26.661Z,0.98
2023-01-09T13:42:56.974Z,1.95
2023-01-09T13:45:27.606Z,4.22
2023-01-09T13:48:10.944Z,4.28
2023-01-09T13:50:38.671Z,2.90
2023-01-09T13:53:27.124Z,1.50
2023-01-09T13:56:14.546Z,4.22
2023-01-09T13:58:56.722Z,5.15
2023-01-09T14:01:37.446Z,2.17
2023-01-09T14:04:10.349Z,3.80
2023-01-09T14:06:37.483Z,1.30
2023-01-09T14:09:18.893Z,1.52
2023-01-09T14:11:46.075Z,1.50
2023-01-09T14:14:43.416Z,1.50
2023-01-09T14:17:23.653Z,1.63
2023-01-09T14:19:53.953Z,2.20
2023-01-09T14:22:24.845Z,2.97
2023-01-09T14:24:52.979Z,1.23
2023-01-09T14:27:38.920Z,1.30
2023-01-09T14:30:28.469Z,1.65
2023-01-09T14:32:59.370Z,2.67
2023-01-09T14:35:28.415Z,2.45
2023-01-09T14:38:24.936Z,1.90
2023-01-09T14:41:00.709Z,2.67
2023-01-09T14:43:32.426Z,3.17
2023-01-09T14:46:00.306Z,3.88
2023-01-09T14:48:27.552Z,4.72
2023-01-09T14:50:59.146Z,4.30
2023-01-09T14:53:27.923Z,4.38
2023-01-09T14:55:55.086Z,6.18
2023-01-09T14:58:25.079Z,2.53
2023-01-09T15:01:12.541Z,2.15
2023-01-09T15:03:39.717Z,2.55
2023-01-09T15:06:07.090Z,1.10
2023-01-09T15:08:34.256Z,1.05
2023-01-09T15:11:01.393Z,1.38
2023-01-09T15:13:38.452Z,1.88
2023-01-09T15:16:06.053Z,1.20
2023-01-09T15:18:34.562Z,2.42
2023-01-09T15:21:02.382Z,1.50
2023-01-09T15:23:30.400Z,4.35
2023-01-09T15:25:58.162Z,1.05
2023-01-09T15:28:26.877Z,2.08
2023-01-09T15:30:55.475Z,2.85
2023-01-09T15:33:22.612Z,2.00
2023-01-09T15:35:50.683Z,4.72
2023-01-09T15:38:24.396Z,4.10
2023-01-09T15:41:10.559Z,8.18
2023-01-09T15:43:40.333Z,4.63
2023-01-09T15:46:07.555Z,1.30
2023-01-09T15:48:35.112Z,2.38
2023-01-09T15:51:10.744Z,2.55
2023-01-09T15:53:37.942Z,2.13
2023-01-09T15:56:06.652Z,7.15
2023-01-09T15:58:37.287Z,7.13
2023-01-09T16:01:04.494Z,12.68
2023-01-09T16:03:31.664Z,23.10
2023-01-09T16:06:05.713Z,16.25
2023-01-09T16:08:42.739Z,10.43
2023-01-09T16:11:10.948Z,11.80
2023-01-09T16:13:44.938Z,5.55
2023-01-09T16:16:12.261Z,6.85
2023-01-09T16:18:39.891Z,6.15
2023-01-09T16:21:21.286Z,6.97
2023-01-09T16:23:55.722Z,9.35
2023-01-09T16:26:23.838Z,8.77
2023-01-09T16:28:51.018Z,5.47
2023-01-09T16:31:25.658Z,6.70
2023-01-09T16:33:57.330Z,7.00
2023-01-09T16:36:24.471Z,10.80
2023-01-09T16:38:51.601Z,10.45
2023-01-09T16:41:40.088Z,9.43
2023-01-09T16:44:09.623Z,7.95
2023-01-09T16:46:38.439Z,7.68
2023-01-09T16:49:06.357Z,6.03
2023-01-09T16:51:33.536Z,3.95
2023-01-09T16:54:00.646Z,5.40
2023-01-09T16:56:28.800Z,18.92
2023-01-09T16:58:56.078Z,8.48
2023-01-09T17:01:23.444Z,8.88
2023-01-09T17:03:51.055Z,7.20
2023-01-09T17:06:31.499Z,5.47
2023-01-09T17:08:58.630Z,5.60
2023-01-09T17:11:32.740Z,11.50
2023-01-09T17:14:00.206Z,8.38
2023-01-09T17:16:27.374Z,8.65
2023-01-09T17:18:54.527Z,8.80
2023-01-09T17:21:22.545Z,9.90
2023-01-09T17:24:12.574Z,8.00
2023-01-09T17:26:58.887Z,8.25
2023-01-09T17:29:26.096Z,8.07
2023-01-09T17:31:53.304Z,9.15
2023-01-09T17:34:20.523Z,12.50
2023-01-09T17:36:47.740Z,19.60
2023-01-09T17:39:15.433Z,18.90
2023-01-09T17:41:42.679Z,21.17
2023-01-09T17:44:10.575Z,17.38
2023-01-09T17:46:39.213Z,12.15
2023-01-09T17:49:06.407Z,9.88
2023-01-09T17:51:33.599Z,10.65
2023-01-09T17:54:00.779Z,8.50
2023-01-09T17:56:29.187Z,8.68
2023-01-09T17:58:56.324Z,11.38
2023-01-09T18:01:23.476Z,9.43
2023-01-09T18:03:50.678Z,11.00
2023-01-09T18:06:18.614Z,11.90
2023-01-09T18:08:45.769Z,9.95
2023-01-09T18:11:14.097Z,8.23
2023-01-09T18:13:41.556Z,8.27
2023-01-09T18:16:12.486Z,8.98
2023-01-09T18:18:40.284Z,9.55
2023-01-09T18:21:08.026Z,8.35
2023-01-09T18:23:35.401Z,13.80
2023-01-09T18:26:06.984Z,15.88
2023-01-09T18:28:36.600Z,17.17
2023-01-09T18:31:03.819Z,19.05
2023-01-09T18:33:30.999Z,18.58
2023-01-09T18:36:03.481Z,21.08
2023-01-09T18:38:30.583Z,25.10
2023-01-09T18:41:03.901Z,24.73
2023-01-09T18:43:31.176Z,21.70
2023-01-09T18:45:58.354Z,23.02
2023-01-09T18:48:25.571Z,21.60
2023-01-09T18:50:52.669Z,22.13
2023-01-09T18:53:19.795Z,22.50
2023-01-09T18:55:46.914Z,22.70
2023-01-09T18:58:14.089Z,24.92
2023-01-09T19:00:41.723Z,24.05
2023-01-09T19:03:08.929Z,20.67
2023-01-09T19:05:36.019Z,20.38
2023-01-09T19:08:03.102Z,26.75
2023-01-09T19:10:30.257Z,25.90
2023-01-09T19:12:57.374Z,23.98
2023-01-09T19:15:24.492Z,21.80
2023-01-09T19:17:51.896Z,22.30
2023-01-09T19:20:19.234Z,25.42
2023-01-09T19:22:46.359Z,25.17
2023-01-09T19:25:13.529Z,22.13
2023-01-09T19:27:40.640Z,16.73
2023-01-09T19:30:08.117Z,16.60
2023-01-09T19:32:35.285Z,34.03
2023-01-09T19:35:02.386Z,34.47
2023-01-09T19:37:29.493Z,31.10
2023-01-09T19:39:56.640Z,42.17
2023-01-09T19:42:23.736Z,39.63
2023-01-09T19:44:50.832Z,24.88
2023-01-09T19:47:18.024Z,28.58
2023-01-09T19:49:45.140Z,31.73
2023-01-09T19:52:12.297Z,27.23
2023-01-09T19:54:40.248Z,25.30
2023-01-09T19:57:07.358Z,17.55
2023-01-09T19:59:36.041Z,13.15
2023-01-09T20:02:03.465Z,15.02
2023-01-09T20:04:30.669Z,30.42
2023-01-09T20:06:57.795Z,36.85
2023-01-09T20:09:27.470Z,29.00
2023-01-09T20:11:54.919Z,25.60
2023-01-09T20:14:22.581Z,42.03
2023-01-09T20:16:50.755Z,45.65
2023-01-09T20:19:17.897Z,41.55
2023-01-09T20:21:45.085Z,29.23
2023-01-09T20:24:16.830Z,33.88
2023-01-09T20:26:46.039Z,36.00
2023-01-09T20:29:13.282Z,48.35
2023-01-09T20:31:40.574Z,49.08
2023-01-09T20:34:07.766Z,50.72
2023-01-09T20:36:34.919Z,45.33
2023-01-09T20:39:02.697Z,73.93
2023-01-09T20:41:31.280Z,95.28
2023-01-09T20:44:08.253Z,86.05
2023-01-09T20:46:37.041Z,84.47
2023-01-09T20:49:06.430Z,32.13
2023-01-09T20:51:34.451Z,21.35
2023-01-09T20:54:01.698Z,21.45
2023-01-09T20:56:30.085Z,19.40
2023-01-09T20:58:57.543Z,21.92
2023-01-09T21:01:24.914Z,22.35
2023-01-09T21:03:52.681Z,25.35
2023-01-09T21:06:20.363Z,23.55
2023-01-09T21:08:47.708Z,22.55
2023-01-09T21:11:15.182Z,23.38
2023-01-09T21:13:42.308Z,21.60
2023-01-09T21:16:13.263Z,20.50
2023-01-09T21:18:40.559Z,19.10
2023-01-09T21:21:09.122Z,17.58
2023-01-09T21:23:36.505Z,17.17
2023-01-09T21:26:08.570Z,17.23
2023-01-09T21:28:45.317Z,17.98
2023-01-09T21:31:13.056Z,17.38
2023-01-09T21:33:40.300Z,18.45
2023-01-09T21:36:07.776Z,18.13
2023-01-09T21:38:34.934Z,18.55
2023-01-09T21:41:22.041Z,21.30
2023-01-09T21:44:07.936Z,17.90
2023-01-09T21:46:55.725Z,21.35
2023-01-09T21:49:25.278Z,26.88
2023-01-09T21:51:55.461Z,26.08
2023-01-09T21:54:25.743Z,28.45
2023-01-09T21:56:53.185Z,25.58
2023-01-09T21:59:20.368Z,28.58
2023-01-09T22:01:48.474Z,33.25
2023-01-09T22:04:15.868Z,37.85
2023-01-09T22:06:43.118Z,35.33
2023-01-09T22:09:10.431Z,36.92
2023-01-09T22:11:38.329Z,26.70
2023-01-09T22:14:05.534Z,27.40
2023-01-09T22:16:32.772Z,32.88
2023-01-09T22:19:00.079Z,33.47
2023-01-09T22:21:27.282Z,30.05
2023-01-09T22:23:54.407Z,25.67
2023-01-09T22:26:21.610Z,25.77
2023-01-09T22:28:48.830Z,23.58
2023-01-09T22:31:19.866Z,23.38
2023-01-09T22:33:50.720Z,22.40
2023-01-09T22:36:17.886Z,24.10
2023-01-09T22:38:45.085Z,23.35
2023-01-09T22:41:12.385Z,24.75
2023-01-09T22:43:39.562Z,23.42
2023-01-09T22:46:11.545Z,23.73
2023-01-09T22:48:39.264Z,22.95
2023-01-09T22:51:07.332Z,19.98
2023-01-09T22:53:34.488Z,22.13
2023-01-09T22:56:02.472Z,21.50
2023-01-09T22:58:32.599Z,20.65
2023-01-09T23:00:59.764Z,19.75
2023-01-09T23:03:27.046Z,22.70
2023-01-09T23:06:03.771Z,21.75
2023-01-09T23:08:31.021Z,21.73
2023-01-09T23:10:58.268Z,20.58
2023-01-09T23:13:25.407Z,19.73
2023-01-09T23:15:52.566Z,20.05
2023-01-09T23:18:19.878Z,20.63
2023-01-09T23:20:59.968Z,22.35
2023-01-09T23:23:27.454Z,21.58
2023-01-09T23:25:55.345Z,19.08
2023-01-09T23:28:22.610Z,17.35
2023-01-09T23:30:49.810Z,17.58
2023-01-09T23:33:17.179Z,18.45
2023-01-09T23:35:44.597Z,16.15
2023-01-09T23:38:11.786Z,17.42
2023-01-09T23:40:39.258Z,24.08
2023-01-09T23:43:09.518Z,16.13
2023-01-09T23:45:37.416Z,13.20
2023-01-09T23:48:05.385Z,10.68
2023-01-09T23:50:32.541Z,11.10
2023-01-09T23:52:59.678Z,9.65
2023-01-09T23:55:26.835Z,11.15
2023-01-09T23:57:56.963Z,9.60
